createdAt,value
2019-05-07T00:02:02.889Z,9.30
2019-05-07T00:04:33.183Z,9.30
2019-05-07T00:07:02.524Z,9.30
2019-05-07T00:09:32.281Z,9.30
2019-05-07T00:12:04.691Z,9.30
2019-05-07T00:14:34.570Z,9.20
2019-05-07T00:17:04.428Z,9.10
2019-05-07T00:19:33.926Z,9.10
2019-05-07T00:22:02.611Z,9.00
2019-05-07T00:24:33.130Z,9.00
2019-05-07T00:27:04.112Z,9.00
2019-05-07T00:29:32.863Z,9.00
2019-05-07T00:32:02.904Z,8.90
2019-05-07T00:34:42.443Z,8.90
2019-05-07T00:37:26.774Z,8.90
2019-05-07T00:40:06.930Z,8.90
2019-05-07T00:42:53.269Z,8.90
2019-05-07T00:45:28.544Z,8.80
2019-05-07T00:47:57.219Z,8.80
2019-05-07T00:50:30.348Z,8.70
2019-05-07T00:52:59.307Z,8.70
2019-05-07T00:55:28.213Z,8.70
2019-05-07T00:57:57.118Z,8.70
2019-05-07T01:00:26.418Z,8.70
2019-05-07T01:02:55.106Z,8.60
2019-05-07T01:05:24.201Z,8.50
2019-05-07T01:07:53.109Z,8.60
2019-05-07T01:10:22.338Z,8.60
2019-05-07T01:12:53.098Z,8.50
2019-05-07T01:15:31.166Z,8.50
2019-05-07T01:17:52.559Z,8.40
2019-05-07T01:20:22.170Z,8.30
2019-05-07T01:22:54.339Z,8.30
2019-05-07T01:25:22.150Z,8.30
2019-05-07T01:27:53.275Z,8.30
2019-05-07T01:30:23.117Z,8.30
2019-05-07T01:32:56.739Z,8.30
2019-05-07T01:35:44.611Z,8.30
2019-05-07T01:38:14.733Z,8.20
2019-05-07T01:40:43.450Z,8.20
2019-05-07T01:43:12.511Z,8.30
2019-05-07T01:45:49.003Z,8.30
2019-05-07T01:48:15.290Z,8.20
2019-05-07T01:50:44.069Z,8.20
2019-05-07T01:53:13.195Z,8.30
2019-05-07T01:55:42.825Z,8.30
2019-05-07T01:58:12.607Z,8.20
2019-05-07T02:00:42.429Z,8.20
2019-05-07T02:03:22.919Z,8.20
2019-05-07T02:05:58.386Z,8.10
2019-05-07T02:08:42.379Z,8.10
2019-05-07T02:11:12.991Z,8.10
2019-05-07T02:13:42.086Z,8.10
2019-05-07T02:16:12.453Z,8.10
2019-05-07T02:18:42.444Z,8.10
2019-05-07T02:21:12.922Z,8.10
2019-05-07T02:23:42.634Z,8.10
2019-05-07T02:26:13.313Z,8.10
2019-05-07T02:28:42.749Z,8.10
2019-05-07T02:31:15.075Z,8.10
2019-05-07T02:33:43.372Z,8.10
2019-05-07T02:36:14.196Z,8.10
2019-05-07T02:38:48.830Z,8.10
2019-05-07T02:41:23.437Z,8.10
2019-05-07T02:43:53.676Z,8.10
2019-05-07T02:46:35.181Z,8.10
2019-05-07T02:49:13.889Z,8.10
2019-05-07T02:51:49.559Z,8.10
2019-05-07T02:54:24.629Z,8.10
2019-05-07T02:56:53.781Z,8.10
2019-05-07T02:59:23.294Z,8.20
2019-05-07T03:01:53.819Z,8.10
2019-05-07T03:04:24.960Z,8.10
2019-05-07T03:06:54.350Z,8.10
2019-05-07T03:09:23.360Z,8.10
2019-05-07T03:11:52.991Z,8.10
2019-05-07T03:14:23.435Z,8.00
2019-05-07T03:16:53.591Z,8.00
2019-05-07T03:19:24.170Z,8.10
2019-05-07T03:21:54.332Z,8.00
2019-05-07T03:24:34.476Z,8.00
2019-05-07T03:27:03.592Z,8.10
2019-05-07T03:29:33.435Z,8.00
2019-05-07T03:32:39.012Z,8.00
2019-05-07T03:35:28.232Z,8.00
2019-05-07T03:37:57.791Z,8.00
2019-05-07T03:40:26.800Z,8.00
2019-05-07T03:42:55.703Z,8.00
2019-05-07T03:45:35.019Z,8.00
2019-05-07T03:48:13.253Z,8.00
2019-05-07T03:50:43.189Z,8.00
2019-05-07T03:53:14.330Z,8.00
2019-05-07T03:55:44.645Z,8.00
2019-05-07T03:58:14.555Z,8.00
2019-05-07T04:00:44.470Z,8.00
2019-05-07T04:03:16.410Z,8.00
2019-05-07T04:05:43.767Z,8.00
2019-05-07T04:08:13.316Z,8.00
2019-05-07T04:10:44.270Z,8.10
2019-05-07T04:13:13.594Z,8.10
2019-05-07T04:15:44.099Z,8.20
2019-05-07T04:18:13.496Z,8.20
2019-05-07T04:20:43.641Z,8.30
2019-05-07T04:23:13.730Z,8.30
2019-05-07T04:26:05.073Z,8.30
2019-05-07T04:28:54.061Z,8.40
2019-05-07T04:31:25.395Z,8.40
2019-05-07T04:33:57.917Z,8.40
2019-05-07T04:36:34.137Z,8.50
2019-05-07T04:39:07.553Z,8.60
2019-05-07T04:41:36.573Z,8.70
2019-05-07T04:44:05.930Z,8.80
2019-05-07T04:46:35.376Z,8.80
2019-05-07T04:49:04.316Z,8.80
2019-05-07T04:51:43.365Z,8.70
2019-05-07T04:54:13.268Z,8.80
2019-05-07T04:56:43.678Z,8.90
2019-05-07T04:59:13.265Z,9.10
2019-05-07T05:01:47.866Z,9.20
2019-05-07T05:04:26.986Z,9.30
2019-05-07T05:06:47.016Z,9.30
2019-05-07T05:09:15.867Z,9.40
2019-05-07T05:11:44.711Z,9.40
2019-05-07T05:14:13.864Z,9.30
2019-05-07T05:16:42.758Z,9.30
2019-05-07T05:19:12.607Z,9.30
2019-05-07T05:21:52.870Z,9.30
2019-05-07T05:24:26.694Z,9.30
2019-05-07T05:26:55.382Z,9.30
2019-05-07T05:29:24.236Z,9.40
2019-05-07T05:31:53.230Z,9.50
2019-05-07T05:34:22.320Z,9.60
2019-05-07T05:36:52.631Z,9.60
2019-05-07T05:39:22.867Z,9.70
2019-05-07T05:41:55.767Z,10.40
2019-05-07T05:44:32.829Z,11.10
2019-05-07T05:47:03.729Z,11.80
2019-05-07T05:49:32.651Z,12.30
2019-05-07T05:52:22.039Z,13.40
2019-05-07T05:54:57.697Z,14.30
2019-05-07T05:58:02.548Z,15.40
2019-05-07T06:00:56.357Z,15.30
2019-05-07T06:03:33.388Z,16.00
2019-05-07T06:06:07.893Z,16.90
2019-05-07T06:08:44.980Z,18.70
2019-05-07T06:11:32.933Z,19.50
2019-05-07T06:14:06.829Z,20.60
2019-05-07T06:16:38.607Z,20.00
2019-05-07T06:19:15.016Z,18.70
2019-05-07T06:22:08.884Z,17.30
2019-05-07T06:24:57.054Z,16.80
2019-05-07T06:27:26.022Z,17.20
2019-05-07T06:29:54.983Z,17.90
2019-05-07T06:32:24.111Z,18.00
2019-05-07T06:34:52.807Z,18.80
2019-05-07T06:37:22.879Z,17.70
2019-05-07T06:40:23.714Z,16.50
2019-05-07T06:43:17.986Z,16.90
2019-05-07T06:45:51.741Z,17.70
2019-05-07T06:48:34.663Z,17.80
2019-05-07T06:50:56.953Z,19.70
2019-05-07T06:53:29.529Z,21.30
2019-05-07T06:55:59.036Z,22.20
2019-05-07T06:58:45.191Z,23.50
2019-05-07T07:01:32.453Z,23.50
2019-05-07T07:04:13.026Z,24.20
2019-05-07T07:07:02.538Z,24.60
2019-05-07T07:09:46.136Z,23.50
2019-05-07T07:12:18.171Z,22.70
2019-05-07T07:14:46.857Z,20.70
2019-05-07T07:17:18.797Z,19.50
2019-05-07T07:19:47.618Z,18.90
2019-05-07T07:22:16.860Z,18.10
2019-05-07T07:24:45.611Z,17.90
2019-05-07T07:27:14.675Z,19.60
2019-05-07T07:29:49.581Z,20.00
2019-05-07T07:32:22.130Z,19.20
2019-05-07T07:34:53.263Z,20.10
2019-05-07T07:37:32.909Z,21.00
2019-05-07T07:40:22.468Z,21.30
2019-05-07T07:42:52.070Z,22.70
2019-05-07T07:45:23.066Z,24.00
2019-05-07T07:47:53.065Z,24.90
2019-05-07T07:50:22.508Z,25.50
2019-05-07T07:52:53.034Z,25.20
2019-05-07T07:55:27.427Z,25.30
2019-05-07T07:58:06.834Z,25.00
2019-05-07T08:00:47.588Z,24.80
2019-05-07T08:03:17.039Z,25.70
2019-05-07T08:05:46.154Z,25.90
2019-05-07T08:08:15.837Z,25.80
2019-05-07T08:10:44.822Z,25.40
2019-05-07T08:13:13.776Z,24.60
2019-05-07T08:15:43.032Z,25.30
2019-05-07T08:18:12.108Z,26.40
2019-05-07T08:20:42.882Z,27.50
2019-05-07T08:23:12.223Z,26.30
2019-05-07T08:25:52.213Z,24.10
2019-05-07T08:28:23.252Z,22.40
2019-05-07T08:31:18.861Z,21.10
2019-05-07T08:33:54.085Z,21.90
2019-05-07T08:36:22.837Z,24.10
2019-05-07T08:38:53.106Z,26.20
2019-05-07T08:41:25.622Z,26.50
2019-05-07T08:44:09.097Z,27.60
2019-05-07T08:46:42.085Z,28.10
2019-05-07T08:49:12.107Z,28.80
2019-05-07T08:51:42.627Z,29.70
2019-05-07T08:54:12.338Z,27.40
2019-05-07T08:56:42.555Z,26.00
2019-05-07T08:59:12.412Z,23.50
2019-05-07T09:01:43.264Z,21.60
2019-05-07T09:04:13.689Z,21.30
2019-05-07T09:06:43.069Z,22.80
2019-05-07T09:09:13.212Z,24.50
2019-05-07T09:11:42.795Z,25.30
2019-05-07T09:14:12.481Z,26.40
2019-05-07T09:16:42.687Z,26.50
2019-05-07T09:19:12.912Z,27.30
2019-05-07T09:21:42.826Z,26.90
2019-05-07T09:24:12.409Z,26.00
2019-05-07T09:26:53.607Z,25.90
2019-05-07T09:29:32.360Z,25.80
2019-05-07T09:32:26.692Z,24.80
2019-05-07T09:34:56.023Z,23.20
2019-05-07T09:37:27.088Z,21.80
2019-05-07T09:39:56.175Z,22.20
2019-05-07T09:42:24.955Z,22.70
2019-05-07T09:44:54.115Z,23.60
2019-05-07T09:47:23.065Z,24.10
2019-05-07T09:50:03.917Z,23.50
2019-05-07T09:52:23.944Z,21.80
2019-05-07T09:54:53.164Z,20.00
2019-05-07T09:57:30.960Z,19.80
2019-05-07T09:59:53.156Z,20.90
2019-05-07T10:02:22.741Z,22.30
2019-05-07T10:04:52.585Z,21.40
2019-05-07T10:07:22.406Z,20.60
2019-05-07T10:09:52.354Z,19.50
2019-05-07T10:12:39.342Z,18.70
2019-05-07T10:15:08.843Z,18.60
2019-05-07T10:17:54.465Z,18.60
2019-05-07T10:20:24.019Z,17.90
2019-05-07T10:22:55.046Z,17.30
2019-05-07T10:25:25.908Z,16.90
2019-05-07T10:27:54.959Z,16.80
2019-05-07T10:30:25.610Z,16.30
2019-05-07T10:32:54.631Z,16.00
2019-05-07T10:35:23.584Z,16.00
2019-05-07T10:37:52.821Z,16.20
2019-05-07T10:40:22.866Z,16.40
2019-05-07T10:42:52.044Z,16.50
2019-05-07T10:45:42.127Z,16.90
2019-05-07T10:48:28.877Z,17.00
2019-05-07T10:50:59.330Z,16.90
2019-05-07T10:53:28.265Z,16.70
2019-05-07T10:55:57.726Z,16.60
2019-05-07T10:58:27.221Z,16.60
2019-05-07T11:00:56.358Z,16.70
2019-05-07T11:03:25.162Z,16.40
2019-05-07T11:05:54.135Z,16.30
2019-05-07T11:08:25.563Z,16.00
2019-05-07T11:10:53.389Z,15.80
2019-05-07T11:13:22.158Z,15.70
2019-05-07T11:15:54.418Z,16.10
2019-05-07T11:18:28.393Z,16.40
2019-05-07T11:20:57.251Z,16.20
2019-05-07T11:23:26.187Z,15.80
2019-05-07T11:25:55.741Z,15.80
2019-05-07T11:28:24.667Z,15.80
2019-05-07T11:30:53.354Z,15.40
2019-05-07T11:33:22.182Z,15.20
2019-05-07T11:35:52.743Z,15.00
2019-05-07T11:38:24.700Z,15.10
2019-05-07T11:40:52.024Z,15.20
2019-05-07T11:43:49.527Z,15.30
2019-05-07T11:46:32.725Z,15.50
2019-05-07T11:49:13.914Z,15.80
2019-05-07T11:51:59.199Z,15.80
2019-05-07T11:54:31.817Z,15.80
2019-05-07T11:57:02.641Z,15.50
2019-05-07T11:59:32.602Z,15.50
2019-05-07T12:02:03.808Z,15.60
2019-05-07T12:04:32.489Z,15.40
2019-05-07T12:07:02.595Z,15.20
2019-05-07T12:09:33.296Z,15.10
2019-05-07T12:12:02.445Z,15.40
2019-05-07T12:14:34.319Z,15.70
2019-05-07T12:17:02.681Z,15.80
2019-05-07T12:19:33.058Z,15.80
2019-05-07T12:22:02.722Z,16.10
2019-05-07T12:24:32.859Z,16.10
2019-05-07T12:27:02.661Z,16.00
2019-05-07T12:29:32.264Z,15.80
2019-05-07T12:32:13.054Z,15.40
2019-05-07T12:34:55.157Z,15.20
2019-05-07T12:37:23.954Z,15.10
2019-05-07T12:39:52.890Z,15.10
2019-05-07T12:42:22.312Z,15.10
2019-05-07T12:44:51.775Z,15.00
2019-05-07T12:47:22.410Z,14.90
2019-05-07T12:49:51.236Z,15.10
2019-05-07T12:52:27.208Z,15.50
2019-05-07T12:55:00.027Z,15.90
2019-05-07T12:57:29.781Z,16.00
2019-05-07T13:00:18.238Z,16.00
2019-05-07T13:03:06.335Z,15.90
2019-05-07T13:05:35.045Z,15.70
2019-05-07T13:08:04.044Z,15.70
2019-05-07T13:10:32.847Z,15.80
2019-05-07T13:13:02.189Z,15.80
2019-05-07T13:15:32.663Z,15.70
2019-05-07T13:18:02.793Z,15.80
2019-05-07T13:20:32.120Z,15.70
2019-05-07T13:23:01.115Z,15.40
2019-05-07T13:25:32.242Z,15.30
2019-05-07T13:28:02.673Z,15.40
2019-05-07T13:30:31.649Z,15.70
2019-05-07T13:33:01.984Z,15.70
2019-05-07T13:35:31.262Z,15.60
2019-05-07T13:38:17.860Z,15.50
2019-05-07T13:41:02.167Z,15.30
2019-05-07T13:43:35.553Z,15.30
2019-05-07T13:46:11.919Z,15.30
2019-05-07T13:48:43.951Z,15.40
2019-05-07T13:51:13.619Z,15.50
2019-05-07T13:53:42.838Z,15.70
2019-05-07T13:56:12.882Z,15.80
2019-05-07T13:58:42.817Z,15.70
2019-05-07T14:01:20.268Z,15.80
2019-05-07T14:03:49.350Z,15.70
2019-05-07T14:06:37.585Z,15.80
2019-05-07T14:09:15.975Z,15.90
2019-05-07T14:11:44.682Z,15.80
2019-05-07T14:14:13.504Z,15.70
2019-05-07T14:16:45.010Z,15.80
2019-05-07T14:19:13.405Z,15.70
2019-05-07T14:21:42.455Z,15.50
2019-05-07T14:24:12.406Z,15.40
2019-05-07T14:26:42.349Z,15.40
2019-05-07T14:29:11.161Z,15.60
2019-05-07T14:31:42.478Z,15.80
2019-05-07T14:34:17.303Z,15.90
2019-05-07T14:36:55.876Z,15.90
2019-05-07T14:39:24.963Z,15.70
2019-05-07T14:41:56.088Z,15.20
2019-05-07T14:44:27.319Z,15.00
2019-05-07T14:46:56.147Z,15.20
2019-05-07T14:49:24.918Z,15.40
2019-05-07T14:51:54.077Z,15.40
2019-05-07T14:54:23.003Z,15.60
2019-05-07T14:56:52.087Z,15.70
2019-05-07T14:59:20.879Z,15.70
2019-05-07T15:01:52.091Z,16.00
2019-05-07T15:04:22.043Z,16.10
2019-05-07T15:06:51.940Z,16.10
2019-05-07T15:09:22.436Z,16.00
2019-05-07T15:11:52.669Z,16.10
2019-05-07T15:14:21.631Z,16.20
2019-05-07T15:16:52.790Z,16.20
2019-05-07T15:19:21.711Z,16.30
2019-05-07T15:21:52.638Z,16.50
2019-05-07T15:24:22.083Z,16.30
2019-05-07T15:26:52.532Z,16.30
2019-05-07T15:29:22.369Z,16.10
2019-05-07T15:32:12.606Z,15.80
2019-05-07T15:34:42.176Z,15.70
2019-05-07T15:37:12.304Z,15.60
2019-05-07T15:39:42.189Z,15.50
2019-05-07T15:42:11.046Z,15.30
2019-05-07T15:44:39.861Z,15.30
2019-05-07T15:47:13.441Z,15.30
2019-05-07T15:49:42.126Z,15.20
2019-05-07T15:52:16.924Z,15.20
2019-05-07T15:54:45.611Z,15.10
2019-05-07T15:57:17.794Z,15.20
2019-05-07T15:59:46.486Z,15.00
2019-05-07T16:02:27.283Z,14.90
2019-05-07T16:04:56.471Z,14.90
2019-05-07T16:07:25.181Z,14.90
2019-05-07T16:09:53.878Z,14.90
2019-05-07T16:12:23.041Z,14.90
2019-05-07T16:14:52.464Z,14.90
2019-05-07T16:17:27.703Z,14.80
2019-05-07T16:19:56.692Z,14.80
2019-05-07T16:22:32.636Z,14.60
2019-05-07T16:25:06.808Z,14.60
2019-05-07T16:27:34.628Z,14.70
2019-05-07T16:30:03.477Z,14.60
2019-05-07T16:32:32.950Z,14.60
2019-05-07T16:35:02.712Z,14.70
2019-05-07T16:37:32.380Z,14.70
2019-05-07T16:40:01.597Z,14.60
2019-05-07T16:42:32.176Z,14.50
2019-05-07T16:45:02.889Z,14.50
2019-05-07T16:47:31.414Z,14.50
2019-05-07T16:50:03.949Z,14.40
2019-05-07T16:52:34.791Z,14.40
2019-05-07T16:55:02.988Z,14.20
2019-05-07T16:57:46.764Z,14.10
2019-05-07T17:00:24.542Z,14.10
2019-05-07T17:02:55.251Z,14.10
2019-05-07T17:05:23.910Z,14.20
2019-05-07T17:08:10.613Z,14.20
2019-05-07T17:10:39.339Z,14.20
2019-05-07T17:13:09.837Z,14.20
2019-05-07T17:15:55.080Z,14.20
2019-05-07T17:18:25.091Z,14.20
2019-05-07T17:20:54.126Z,14.10
2019-05-07T17:23:23.069Z,14.00
2019-05-07T17:25:52.608Z,13.90
2019-05-07T17:28:22.891Z,13.80
2019-05-07T17:30:52.403Z,13.70
2019-05-07T17:33:22.991Z,13.50
2019-05-07T17:35:51.975Z,13.50
2019-05-07T17:38:22.860Z,13.50
2019-05-07T17:40:52.203Z,13.50
2019-05-07T17:43:22.007Z,13.40
2019-05-07T17:45:52.327Z,13.30
2019-05-07T17:48:23.245Z,13.30
2019-05-07T17:51:01.591Z,13.20
2019-05-07T17:53:32.048Z,13.20
2019-05-07T17:56:02.121Z,13.10
2019-05-07T17:58:32.585Z,13.00
2019-05-07T18:01:03.165Z,12.90
2019-05-07T18:03:32.808Z,12.80
2019-05-07T18:06:02.435Z,12.70
2019-05-07T18:08:32.459Z,12.60
2019-05-07T18:11:16.667Z,12.50
2019-05-07T18:13:33.217Z,12.50
2019-05-07T18:16:09.082Z,12.40
2019-05-07T18:18:37.895Z,12.30
2019-05-07T18:21:06.586Z,12.20
2019-05-07T18:23:35.632Z,12.20
2019-05-07T18:26:04.462Z,12.10
2019-05-07T18:28:33.314Z,12.10
2019-05-07T18:31:02.297Z,12.00
2019-05-07T18:33:56.176Z,12.00
2019-05-07T18:36:24.880Z,12.00
2019-05-07T18:38:53.561Z,12.00
2019-05-07T18:41:22.516Z,12.00
2019-05-07T18:43:54.146Z,12.00
2019-05-07T18:46:22.281Z,12.00
2019-05-07T18:48:51.848Z,11.90
2019-05-07T18:51:20.825Z,11.90
2019-05-07T18:53:51.917Z,11.90
2019-05-07T18:56:21.908Z,11.80
2019-05-07T18:58:52.066Z,11.80
2019-05-07T19:01:22.784Z,11.80
2019-05-07T19:03:52.559Z,11.70
2019-05-07T19:06:22.342Z,11.70
2019-05-07T19:08:52.737Z,11.70
2019-05-07T19:11:22.878Z,11.70
2019-05-07T19:13:52.829Z,11.70
2019-05-07T19:16:23.107Z,11.70
2019-05-07T19:18:52.056Z,11.70
2019-05-07T19:21:22.415Z,11.60
2019-05-07T19:23:52.969Z,11.60
2019-05-07T19:26:21.930Z,11.60
2019-05-07T19:28:50.734Z,11.50
2019-05-07T19:31:21.884Z,11.40
2019-05-07T19:33:52.344Z,11.40
2019-05-07T19:36:23.650Z,11.20
2019-05-07T19:38:52.700Z,11.10
2019-05-07T19:41:21.460Z,11.00
2019-05-07T19:43:52.616Z,10.90
2019-05-07T19:46:22.855Z,10.80
2019-05-07T19:48:52.148Z,10.70
2019-05-07T19:51:20.941Z,10.60
2019-05-07T19:53:52.440Z,10.50
2019-05-07T19:56:25.620Z,10.40
2019-05-07T19:58:54.740Z,10.30
2019-05-07T20:01:32.350Z,10.20
2019-05-07T20:04:02.601Z,10.20
2019-05-07T20:06:32.453Z,10.10
2019-05-07T20:09:11.437Z,10.00
2019-05-07T20:11:37.857Z,9.90
2019-05-07T20:14:07.035Z,9.80
2019-05-07T20:16:36.949Z,9.80
2019-05-07T20:19:05.671Z,9.70
2019-05-07T20:21:34.545Z,9.60
2019-05-07T20:24:03.532Z,9.60
2019-05-07T20:26:32.896Z,9.50
2019-05-07T20:29:03.015Z,9.50
2019-05-07T20:31:33.146Z,9.40
2019-05-07T20:34:02.531Z,9.30
2019-05-07T20:36:32.770Z,9.30
2019-05-07T20:39:02.307Z,9.20
2019-05-07T20:41:32.551Z,9.20
2019-05-07T20:44:02.860Z,9.10
2019-05-07T20:46:32.108Z,9.10
2019-05-07T20:49:02.721Z,9.10
2019-05-07T20:51:32.521Z,9.00
2019-05-07T20:54:12.690Z,9.00
2019-05-07T20:56:46.631Z,9.00
2019-05-07T20:59:15.166Z,8.90
2019-05-07T21:01:43.909Z,8.90
2019-05-07T21:04:13.047Z,8.90
2019-05-07T21:06:43.158Z,8.90
2019-05-07T21:09:12.741Z,8.90
2019-05-07T21:11:43.122Z,8.90
2019-05-07T21:14:12.249Z,9.00
2019-05-07T21:16:42.532Z,8.90
2019-05-07T21:19:12.917Z,8.90
2019-05-07T21:21:42.279Z,8.90
2019-05-07T21:24:13.021Z,8.90
2019-05-07T21:26:43.204Z,8.80
2019-05-07T21:29:13.779Z,8.80
2019-05-07T21:31:43.264Z,8.70
2019-05-07T21:34:12.657Z,8.70
2019-05-07T21:36:43.261Z,8.60
2019-05-07T21:39:13.083Z,8.60
2019-05-07T21:41:42.678Z,8.60
2019-05-07T21:44:11.727Z,8.50
2019-05-07T21:46:42.542Z,8.40
2019-05-07T21:49:12.162Z,8.40
2019-05-07T21:51:41.271Z,8.30
2019-05-07T21:54:17.154Z,8.20
2019-05-07T21:57:08.602Z,8.20
2019-05-07T21:59:37.931Z,8.10
2019-05-07T22:02:15.408Z,8.10
2019-05-07T22:04:44.195Z,8.10
2019-05-07T22:07:12.877Z,8.00
2019-05-07T22:09:41.776Z,8.00
2019-05-07T22:12:12.155Z,7.90
2019-05-07T22:14:40.883Z,7.80
2019-05-07T22:17:09.939Z,7.80
2019-05-07T22:19:38.638Z,7.70
2019-05-07T22:22:07.534Z,7.70
2019-05-07T22:24:36.494Z,7.70
2019-05-07T22:27:05.327Z,7.60
2019-05-07T22:29:34.008Z,7.60
2019-05-07T22:32:16.882Z,7.50
2019-05-07T22:34:56.473Z,7.50
2019-05-07T22:37:25.458Z,7.40
2019-05-07T22:39:54.139Z,7.40
2019-05-07T22:42:23.061Z,7.30
2019-05-07T22:44:52.290Z,7.30
2019-05-07T22:47:22.687Z,7.30
2019-05-07T22:49:53.611Z,7.20
2019-05-07T22:52:22.559Z,7.10
2019-05-07T22:54:51.594Z,7.10
2019-05-07T22:57:32.428Z,7.10
2019-05-07T23:00:04.216Z,7.00
2019-05-07T23:02:32.147Z,7.00
2019-05-07T23:05:02.934Z,6.90
2019-05-07T23:07:32.910Z,6.90
2019-05-07T23:10:02.824Z,6.90
2019-05-07T23:12:32.644Z,6.90
2019-05-07T23:15:02.708Z,6.80
2019-05-07T23:17:32.648Z,6.80
2019-05-07T23:20:01.634Z,6.80
2019-05-07T23:22:32.363Z,6.70
2019-05-07T23:25:00.935Z,6.60
2019-05-07T23:27:29.685Z,6.60
2019-05-07T23:29:58.350Z,6.60
2019-05-07T23:32:27.034Z,6.50
2019-05-07T23:34:55.738Z,6.50
2019-05-07T23:37:24.400Z,6.40
2019-05-07T23:39:55.124Z,6.40
2019-05-07T23:42:27.934Z,6.40
2019-05-07T23:44:56.913Z,6.30
2019-05-07T23:47:25.618Z,6.30
2019-05-07T23:49:55.157Z,6.30
2019-05-07T23:52:24.085Z,6.20
2019-05-07T23:54:52.770Z,6.20
2019-05-07T23:57:23.118Z,6.20
2019-05-07T23:59:52.986Z,6.20
